ADDS METAR Data INFO
IDs: Format: Raw Decoded Include TAF

Data at: 0733 UTC 18 Oct 2017

KLZU 180656Z AUTO 00000KT 10SM CLR 07/06 RMK AO2 SLPNO T00670061 $
KLZU 180556Z AUTO 00000KT 10SM CLR 07/06 RMK AO2 SLPNO T00670061 10128 20067 $
KLZU 180456Z AUTO 00000KT 10SM CLR 08/07 RMK AO2 SLPNO T00780067 402000072 $
KLZU 180356Z AUTO 00000KT 10SM CLR 08/07 RMK AO2 SLPNO T00780072 $
KLZU 180256Z AUTO 00000KT 10SM CLR 08/07 RMK AO2 SLPNO T00830072 $
KLZU 180156Z AUTO 00000KT 10SM CLR 10/08 RMK AO2 SLPNO T01000078 $
KLZU 180056Z AUTO 00000KT 10SM CLR 11/08 A3027 RMK AO2 SLP250 T01060078 $
KLZU 172356Z 00000KT 10SM CLR 13/08 A3027 RMK AO2 SLP250 T01280083 10200 20122 55000 $
KLZU 172256Z 03003KT 10SM CLR 16/06 A3026 RMK AO2 SLP245 T01610056 $
KLZU 172156Z 05003KT 10SM CLR 19/05 A3026 RMK AO2 SLP244 T01890050 $
KLZU 172056Z 09006KT 10SM CLR 20/05 A3027 RMK AO2 SLP247 T02000050 56017 $
KLZU 171956Z 00000KT 10SM CLR 19/04 A3027 RMK AO2 SLP247 T01940044 $
KLZU 171856Z 06006KT 10SM CLR 19/05 A3028 RMK AO2 SLP250 T01890050 $
KLZU 171756Z 05007KT 030V100 10SM CLR 18/04 A3032 RMK AO2 SLP264 T01780039 10183 20083 58013 $
KLZU 171656Z 05004G16KT 10SM CLR 17/04 A3035 RMK AO2 SLP274 T01720044 $
KLZU 171556Z 11011KT 10SM CLR 16/04 A3036 RMK AO2 SLP277 T01610044 $
KLZU 171456Z 06011KT 10SM CLR 15/04 A3036 RMK AO2 SLP278 T01500044 51013 $
KLZU 171356Z 06010G15KT 10SM CLR 13/04 A3036 RMK AO2 SLP278 T01330039 $
KLZU 171256Z 06006KT 10SM CLR 11/04 A3034 RMK AO2 SLP273 T01110039 $
KLZU 171156Z 04006KT 10SM CLR 08/04 A3032 RMK AO2 SLP266 7//// T00830044 10106 20078 $
KLZU 171056Z 04005KT 10SM CLR 08/06 A3029 RMK AO2 SLP256 T00780056 $
KLZU 170956Z AUTO 03003KT 10SM CLR 08/06 RMK AO2 SLPNO T00830056 $
KLZU 170856Z AUTO 04005KT 10SM CLR 09/06 RMK AO2 SLPNO T00890056 $
KLZU 170756Z AUTO 06004KT 10SM CLR 09/06 RMK AO2 SLPNO T00940056 $
KLZU 170656Z AUTO 06005KT 10SM CLR 10/06 RMK AO2 SLPNO T01000056 $
KLZU 170556Z AUTO 05005KT 10SM CLR 11/06 RMK AO2 SLPNO T01060056 10156 20106 $
KLZU 170456Z AUTO 05005KT 10SM CLR 12/06 RMK AO2 SLPNO T01170056 402220117 $
KLZU 170356Z AUTO 06005KT 10SM CLR 12/06 RMK AO2 SLPNO T01220061 $
KLZU 170256Z AUTO 05005KT 10SM CLR 13/07 RMK AO2 SLPNO T01280067 $
KLZU 170156Z AUTO VRB03KT 10SM FEW044 14/08 RMK AO2 SLPNO T01390078 $
KLZU 170056Z AUTO 00000KT 10SM CLR 14/08 A3018 RMK AO2 SLP216 T01390078 $
KLZU 162356Z VRB03KT 10SM CLR 16/07 A3014 RMK AO2 SLP202 T01560072 10222 20156 53017 $
KLZU 162256Z 30012KT 10SM CLR 17/07 A3011 RMK AO2 SLP190 T01720067 $
KLZU 162156Z 30012KT 10SM CLR 20/07 A3009 RMK AO2 SLP182 T02000072 $
KLZU 162056Z 30012G17KT 10SM CLR 21/07 A3009 RMK AO2 SLP181 T02110067 55010 $
KLZU 161956Z VRB05KT 10SM CLR 21/09 A3008 RMK AO2 SLP178 T02110089 $